sensor_id;sensor_type;location;lat;lon;timestamp;pressure;altitude;pressure_sealevel;temperature;humidity
54144;BME280;40050;47.324;18.792;2023-02-22T00:00:39;1004.04;;;8.50;64.30
54144;BME280;40050;47.324;18.792;2023-02-22T00:02:42;1004.04;;;8.43;64.16
54144;BME280;40050;47.324;18.792;2023-02-22T00:04:44;1004.03;;;8.39;64.91
54144;BME280;40050;47.324;18.792;2023-02-22T00:06:47;1004.05;;;8.34;64.89
54144;BME280;40050;47.324;18.792;2023-02-22T00:08:49;1004.02;;;8.24;64.52
54144;BME280;40050;47.324;18.792;2023-02-22T00:10:52;1004.03;;;8.25;65.05
54144;BME280;40050;47.324;18.792;2023-02-22T00:12:54;1004.06;;;8.20;64.80
54144;BME280;40050;47.324;18.792;2023-02-22T00:14:57;1004.04;;;8.13;65.19
54144;BME280;40050;47.324;18.792;2023-02-22T00:16:59;1004.04;;;8.13;66.03
54144;BME280;40050;47.324;18.792;2023-02-22T00:19:01;1004.08;;;8.11;65.61
54144;BME280;40050;47.324;18.792;2023-02-22T00:21:04;1004.03;;;8.05;65.31
54144;BME280;40050;47.324;18.792;2023-02-22T00:23:08;1004.06;;;8.02;65.65
54144;BME280;40050;47.324;18.792;2023-02-22T00:25:11;1004.12;;;7.98;65.98
54144;BME280;40050;47.324;18.792;2023-02-22T00:27:13;1004.15;;;7.98;65.78
54144;BME280;40050;47.324;18.792;2023-02-22T00:29:18;1004.10;;;7.90;65.29
54144;BME280;40050;47.324;18.792;2023-02-22T00:31:21;1004.12;;;7.86;65.33
54144;BME280;40050;47.324;18.792;2023-02-22T00:33:23;1004.12;;;7.80;66.21
54144;BME280;40050;47.324;18.792;2023-02-22T00:35:26;1004.08;;;7.76;68.84
54144;BME280;40050;47.324;18.792;2023-02-22T00:37:29;1004.14;;;7.84;67.64
54144;BME280;40050;47.324;18.792;2023-02-22T00:39:31;1004.07;;;7.80;67.91
54144;BME280;40050;47.324;18.792;2023-02-22T00:41:34;1004.09;;;7.82;68.17
54144;BME280;40050;47.324;18.792;2023-02-22T00:43:36;1003.91;;;7.72;67.95
54144;BME280;40050;47.324;18.792;2023-02-22T00:45:39;1004.06;;;7.74;68.53
54144;BME280;40050;47.324;18.792;2023-02-22T00:47:42;1004.06;;;7.77;68.82
54144;BME280;40050;47.324;18.792;2023-02-22T00:49:44;1004.07;;;7.81;68.88
54144;BME280;40050;47.324;18.792;2023-02-22T00:51:46;1004.10;;;7.89;68.86
54144;BME280;40050;47.324;18.792;2023-02-22T00:53:49;1004.11;;;7.96;68.96
54144;BME280;40050;47.324;18.792;2023-02-22T00:55:51;1004.08;;;7.92;68.73
54144;BME280;40050;47.324;18.792;2023-02-22T00:57:54;1004.00;;;7.87;68.96
54144;BME280;40050;47.324;18.792;2023-02-22T00:59:57;1004.05;;;7.99;69.13
54144;BME280;40050;47.324;18.792;2023-02-22T01:01:59;1004.12;;;8.07;68.98
54144;BME280;40050;47.324;18.792;2023-02-22T01:04:01;1004.04;;;8.07;68.86
54144;BME280;40050;47.324;18.792;2023-02-22T01:06:04;1004.04;;;8.08;68.87
54144;BME280;40050;47.324;18.792;2023-02-22T01:08:07;1004.01;;;8.09;68.78
54144;BME280;40050;47.324;18.792;2023-02-22T01:10:10;1003.95;;;8.07;68.78
54144;BME280;40050;47.324;18.792;2023-02-22T01:12:12;1003.98;;;8.07;68.90
54144;BME280;40050;47.324;18.792;2023-02-22T01:14:15;1004.03;;;8.12;68.99
54144;BME280;40050;47.324;18.792;2023-02-22T01:16:17;1004.02;;;8.14;68.86
54144;BME280;40050;47.324;18.792;2023-02-22T01:18:19;1003.95;;;8.09;68.89
54144;BME280;40050;47.324;18.792;2023-02-22T01:20:22;1004.03;;;8.14;68.92
54144;BME280;40050;47.324;18.792;2023-02-22T01:22:25;1004.03;;;8.14;68.86
54144;BME280;40050;47.324;18.792;2023-02-22T01:24:27;1004.06;;;8.15;68.88
54144;BME280;40050;47.324;18.792;2023-02-22T01:26:29;1003.96;;;8.11;68.78
54144;BME280;40050;47.324;18.792;2023-02-22T01:28:32;1004.04;;;8.18;68.80
54144;BME280;40050;47.324;18.792;2023-02-22T01:30:35;1003.99;;;8.17;68.87
54144;BME280;40050;47.324;18.792;2023-02-22T01:32:38;1004.02;;;8.22;68.82
54144;BME280;40050;47.324;18.792;2023-02-22T01:34:40;1003.91;;;8.17;68.62
54144;BME280;40050;47.324;18.792;2023-02-22T01:36:43;1004.02;;;8.18;68.68
54144;BME280;40050;47.324;18.792;2023-02-22T01:38:45;1003.95;;;8.20;68.28
54144;BME280;40050;47.324;18.792;2023-02-22T01:40:48;1004.02;;;8.17;68.31
54144;BME280;40050;47.324;18.792;2023-02-22T01:42:52;1003.97;;;8.15;68.23
54144;BME280;40050;47.324;18.792;2023-02-22T01:47:21;1003.98;;;8.11;68.05
54144;BME280;40050;47.324;18.792;2023-02-22T01:49:24;1003.91;;;8.06;67.99
54144;BME280;40050;47.324;18.792;2023-02-22T01:51:37;1003.94;;;8.03;68.04
54144;BME280;40050;47.324;18.792;2023-02-22T01:53:49;1003.95;;;7.99;68.04
54144;BME280;40050;47.324;18.792;2023-02-22T01:55:53;1003.92;;;7.99;67.97
54144;BME280;40050;47.324;18.792;2023-02-22T01:57:56;1003.74;;;7.87;67.95
54144;BME280;40050;47.324;18.792;2023-02-22T02:00:00;1003.91;;;7.99;67.88
54144;BME280;40050;47.324;18.792;2023-02-22T02:02:03;1003.86;;;7.97;67.75
54144;BME280;40050;47.324;18.792;2023-02-22T02:04:06;1003.91;;;7.98;67.64
54144;BME280;40050;47.324;18.792;2023-02-22T02:06:12;1003.92;;;7.98;67.54
54144;BME280;40050;47.324;18.792;2023-02-22T02:08:23;1003.93;;;7.97;67.47
54144;BME280;40050;47.324;18.792;2023-02-22T02:10:29;1003.89;;;7.93;67.60
54144;BME280;40050;47.324;18.792;2023-02-22T02:12:33;1003.83;;;7.87;67.58
54144;BME280;40050;47.324;18.792;2023-02-22T02:14:36;1003.90;;;7.88;67.52
54144;BME280;40050;47.324;18.792;2023-02-22T02:16:48;1003.83;;;7.83;67.20
54144;BME280;40050;47.324;18.792;2023-02-22T02:18:51;1003.85;;;7.79;67.26
54144;BME280;40050;47.324;18.792;2023-02-22T02:23:21;1003.86;;;7.70;67.29
54144;BME280;40050;47.324;18.792;2023-02-22T02:30:14;1003.92;;;7.64;67.19
54144;BME280;40050;47.324;18.792;2023-02-22T02:32:28;1003.86;;;7.54;67.20
54144;BME280;40050;47.324;18.792;2023-02-22T02:36:59;1003.91;;;7.56;67.04
54144;BME280;40050;47.324;18.792;2023-02-22T02:43:44;1003.90;;;7.53;66.45
54144;BME280;40050;47.324;18.792;2023-02-22T02:46:01;1003.86;;;7.40;66.16
54144;BME280;40050;47.324;18.792;2023-02-22T02:48:05;1003.94;;;7.34;66.35
54144;BME280;40050;47.324;18.792;2023-02-22T02:50:14;1003.90;;;7.28;66.65
54144;BME280;40050;47.324;18.792;2023-02-22T02:52:17;1003.81;;;7.19;66.95
54144;BME280;40050;47.324;18.792;2023-02-22T02:54:21;1003.90;;;7.23;67.34
54144;BME280;40050;47.324;18.792;2023-02-22T02:56:25;1003.89;;;7.24;67.51
54144;BME280;40050;47.324;18.792;2023-02-22T02:58:28;1003.95;;;7.25;67.65
54144;BME280;40050;47.324;18.792;2023-02-22T03:00:31;1003.96;;;7.27;67.90
54144;BME280;40050;47.324;18.792;2023-02-22T03:02:43;1003.93;;;7.27;68.06
54144;BME280;40050;47.324;18.792;2023-02-22T03:07:16;1003.97;;;7.24;68.29
54144;BME280;40050;47.324;18.792;2023-02-22T03:14:05;1003.92;;;7.26;68.80
54144;BME280;40050;47.324;18.792;2023-02-22T03:18:49;1003.98;;;7.32;69.41
54144;BME280;40050;47.324;18.792;2023-02-22T03:20:59;1004.01;;;7.36;69.47
54144;BME280;40050;47.324;18.792;2023-02-22T03:25:19;1003.99;;;7.40;69.50
54144;BME280;40050;47.324;18.792;2023-02-22T03:27:36;1003.94;;;7.42;69.71
54144;BME280;40050;47.324;18.792;2023-02-22T03:29:42;1003.92;;;7.47;69.76
54144;BME280;40050;47.324;18.792;2023-02-22T03:31:47;1003.90;;;7.47;69.79
54144;BME280;40050;47.324;18.792;2023-02-22T03:34:53;1003.93;;;7.48;69.86
54144;BME280;40050;47.324;18.792;2023-02-22T03:36:21;1003.96;;;7.50;69.99
54144;BME280;40050;47.324;18.792;2023-02-22T03:38:26;1003.98;;;7.50;70.05
54144;BME280;40050;47.324;18.792;2023-02-22T03:40:32;1004.00;;;7.52;70.13
54144;BME280;40050;47.324;18.792;2023-02-22T03:42:36;1004.04;;;7.53;70.28
54144;BME280;40050;47.324;18.792;2023-02-22T03:44:39;1003.98;;;7.54;70.32
54144;BME280;40050;47.324;18.792;2023-02-22T03:46:42;1003.95;;;7.54;70.34
54144;BME280;40050;47.324;18.792;2023-02-22T03:48:57;1004.06;;;7.59;70.40
54144;BME280;40050;47.324;18.792;2023-02-22T03:51:00;1003.92;;;7.55;70.51
54144;BME280;40050;47.324;18.792;2023-02-22T03:53:03;1004.08;;;7.64;70.55
54144;BME280;40050;47.324;18.792;2023-02-22T03:55:05;1004.01;;;7.64;70.55
54144;BME280;40050;47.324;18.792;2023-02-22T03:57:12;1003.97;;;7.69;70.51
54144;BME280;40050;47.324;18.792;2023-02-22T03:59:16;1004.00;;;7.70;70.48
54144;BME280;40050;47.324;18.792;2023-02-22T04:01:19;1003.92;;;7.73;70.41
54144;BME280;40050;47.324;18.792;2023-02-22T04:03:22;1003.73;;;7.61;70.42
54144;BME280;40050;47.324;18.792;2023-02-22T04:05:24;1003.94;;;7.75;70.37
54144;BME280;40050;47.324;18.792;2023-02-22T04:07:27;1004.02;;;7.82;70.22
54144;BME280;40050;47.324;18.792;2023-02-22T04:09:29;1004.00;;;7.81;70.13
54144;BME280;40050;47.324;18.792;2023-02-22T04:11:31;1004.08;;;7.80;70.10
54144;BME280;40050;47.324;18.792;2023-02-22T04:13:34;1004.06;;;7.78;70.05
54144;BME280;40050;47.324;18.792;2023-02-22T04:15:36;1004.12;;;7.75;70.01
54144;BME280;40050;47.324;18.792;2023-02-22T04:17:38;1004.06;;;7.71;69.98
54144;BME280;40050;47.324;18.792;2023-02-22T04:19:41;1004.16;;;7.69;70.01
54144;BME280;40050;47.324;18.792;2023-02-22T04:21:43;1004.12;;;7.68;70.07
54144;BME280;40050;47.324;18.792;2023-02-22T04:23:45;1004.14;;;7.67;70.09
54144;BME280;40050;47.324;18.792;2023-02-22T04:25:48;1004.12;;;7.68;69.97
54144;BME280;40050;47.324;18.792;2023-02-22T04:27:50;1004.08;;;7.64;69.51
54144;BME280;40050;47.324;18.792;2023-02-22T04:29:53;1004.08;;;7.64;69.11
54144;BME280;40050;47.324;18.792;2023-02-22T04:31:55;1004.08;;;7.59;68.79
54144;BME280;40050;47.324;18.792;2023-02-22T04:33:58;1004.11;;;7.53;68.89
54144;BME280;40050;47.324;18.792;2023-02-22T04:36:00;1003.84;;;7.34;69.03
54144;BME280;40050;47.324;18.792;2023-02-22T04:38:03;1004.10;;;7.50;69.10
54144;BME280;40050;47.324;18.792;2023-02-22T04:40:05;1004.08;;;7.47;69.12
54144;BME280;40050;47.324;18.792;2023-02-22T04:42:08;1004.11;;;7.46;68.96
54144;BME280;40050;47.324;18.792;2023-02-22T04:44:10;1004.10;;;7.45;68.94
54144;BME280;40050;47.324;18.792;2023-02-22T04:46:12;1004.02;;;7.41;68.86
54144;BME280;40050;47.324;18.792;2023-02-22T04:48:15;1004.09;;;7.43;68.78
54144;BME280;40050;47.324;18.792;2023-02-22T04:50:17;1004.11;;;7.43;68.60
54144;BME280;40050;47.324;18.792;2023-02-22T04:52:20;1004.12;;;7.39;68.42
54144;BME280;40050;47.324;18.792;2023-02-22T04:54:22;1004.14;;;7.39;68.33
54144;BME280;40050;47.324;18.792;2023-02-22T04:56:25;1004.16;;;7.36;68.36
54144;BME280;40050;47.324;18.792;2023-02-22T04:58:27;1004.05;;;7.25;68.39
54144;BME280;40050;47.324;18.792;2023-02-22T05:00:29;1004.19;;;7.31;68.38
54144;BME280;40050;47.324;18.792;2023-02-22T05:02:32;1004.17;;;7.28;68.36
54144;BME280;40050;47.324;18.792;2023-02-22T05:04:36;1004.18;;;7.26;68.29
54144;BME280;40050;47.324;18.792;2023-02-22T05:06:38;1004.19;;;7.24;68.23
54144;BME280;40050;47.324;18.792;2023-02-22T05:08:41;1004.11;;;7.21;68.10
54144;BME280;40050;47.324;18.792;2023-02-22T05:10:43;1004.10;;;7.17;68.15
54144;BME280;40050;47.324;18.792;2023-02-22T05:12:45;1004.08;;;7.14;68.23
54144;BME280;40050;47.324;18.792;2023-02-22T05:14:48;1004.11;;;7.11;68.31
54144;BME280;40050;47.324;18.792;2023-02-22T05:16:50;1004.13;;;7.09;68.34
54144;BME280;40050;47.324;18.792;2023-02-22T05:18:52;1004.21;;;7.09;68.37
54144;BME280;40050;47.324;18.792;2023-02-22T05:20:55;1004.20;;;7.05;68.44
54144;BME280;40050;47.324;18.792;2023-02-22T05:22:58;1004.18;;;7.02;68.56
54144;BME280;40050;47.324;18.792;2023-02-22T05:25:01;1004.24;;;7.00;68.63
54144;BME280;40050;47.324;18.792;2023-02-22T05:27:03;1004.20;;;6.98;68.86
54144;BME280;40050;47.324;18.792;2023-02-22T05:29:05;1004.24;;;6.98;68.92
54144;BME280;40050;47.324;18.792;2023-02-22T05:31:08;1004.26;;;6.98;68.97
54144;BME280;40050;47.324;18.792;2023-02-22T05:33:10;1004.36;;;6.99;69.12
54144;BME280;40050;47.324;18.792;2023-02-22T05:35:12;1004.33;;;6.97;69.20
54144;BME280;40050;47.324;18.792;2023-02-22T05:37:15;1004.37;;;6.97;69.30
54144;BME280;40050;47.324;18.792;2023-02-22T05:39:17;1004.35;;;6.95;69.38
54144;BME280;40050;47.324;18.792;2023-02-22T05:41:20;1004.38;;;6.99;69.57
54144;BME280;40050;47.324;18.792;2023-02-22T05:43:22;1004.38;;;6.98;69.72
54144;BME280;40050;47.324;18.792;2023-02-22T05:45:25;1004.34;;;6.98;69.81
54144;BME280;40050;47.324;18.792;2023-02-22T05:47:28;1004.38;;;6.96;69.98
54144;BME280;40050;47.324;18.792;2023-02-22T05:49:30;1004.42;;;6.96;70.08
54144;BME280;40050;47.324;18.792;2023-02-22T05:51:33;1004.42;;;6.92;70.12
54144;BME280;40050;47.324;18.792;2023-02-22T05:53:35;1004.50;;;6.91;70.26
54144;BME280;40050;47.324;18.792;2023-02-22T05:55:37;1004.44;;;6.89;70.46
54144;BME280;40050;47.324;18.792;2023-02-22T05:57:40;1004.50;;;6.92;70.67
54144;BME280;40050;47.324;18.792;2023-02-22T05:59:42;1004.53;;;6.93;70.95
54144;BME280;40050;47.324;18.792;2023-02-22T06:01:45;1004.56;;;6.95;71.06
54144;BME280;40050;47.324;18.792;2023-02-22T06:03:48;1004.54;;;6.96;71.40
54144;BME280;40050;47.324;18.792;2023-02-22T06:05:50;1004.55;;;7.01;71.60
54144;BME280;40050;47.324;18.792;2023-02-22T06:07:53;1004.53;;;7.02;71.74
54144;BME280;40050;47.324;18.792;2023-02-22T06:09:55;1004.60;;;7.06;71.84
54144;BME280;40050;47.324;18.792;2023-02-22T06:11:58;1004.56;;;7.06;71.83
54144;BME280;40050;47.324;18.792;2023-02-22T06:14:00;1004.63;;;7.10;71.94
54144;BME280;40050;47.324;18.792;2023-02-22T06:16:03;1004.60;;;7.14;72.08
54144;BME280;40050;47.324;18.792;2023-02-22T06:18:05;1004.51;;;7.10;72.16
54144;BME280;40050;47.324;18.792;2023-02-22T06:20:08;1004.60;;;7.22;72.30
54144;BME280;40050;47.324;18.792;2023-02-22T06:22:15;1004.68;;;7.29;72.50
54144;BME280;40050;47.324;18.792;2023-02-22T06:24:18;1004.65;;;7.32;72.49
54144;BME280;40050;47.324;18.792;2023-02-22T06:26:20;1004.78;;;7.39;72.56
54144;BME280;40050;47.324;18.792;2023-02-22T06:28:23;1004.77;;;7.41;72.66
54144;BME280;40050;47.324;18.792;2023-02-22T06:30:25;1004.78;;;7.45;72.76
54144;BME280;40050;47.324;18.792;2023-02-22T06:32:28;1004.77;;;7.45;72.80
54144;BME280;40050;47.324;18.792;2023-02-22T06:34:30;1004.84;;;7.52;72.85
54144;BME280;40050;47.324;18.792;2023-02-22T06:36:33;1004.83;;;7.55;72.83
54144;BME280;40050;47.324;18.792;2023-02-22T06:38:38;1004.85;;;7.57;73.12
54144;BME280;40050;47.324;18.792;2023-02-22T06:40:40;1004.90;;;7.64;73.17
54144;BME280;40050;47.324;18.792;2023-02-22T06:42:42;1004.92;;;7.70;73.22
54144;BME280;40050;47.324;18.792;2023-02-22T06:44:45;1004.91;;;7.74;73.46
54144;BME280;40050;47.324;18.792;2023-02-22T06:46:47;1004.97;;;7.79;73.61
54144;BME280;40050;47.324;18.792;2023-02-22T06:48:50;1004.91;;;7.81;73.64
54144;BME280;40050;47.324;18.792;2023-02-22T06:50:52;1004.98;;;7.90;73.73
54144;BME280;40050;47.324;18.792;2023-02-22T06:52:55;1004.97;;;7.96;73.93
54144;BME280;40050;47.324;18.792;2023-02-22T06:54:58;1004.99;;;8.03;74.06
54144;BME280;40050;47.324;18.792;2023-02-22T06:57:00;1005.02;;;8.08;74.18
54144;BME280;40050;47.324;18.792;2023-02-22T06:59:02;1005.01;;;8.16;74.26
54144;BME280;40050;47.324;18.792;2023-02-22T07:01:05;1005.06;;;8.24;74.15
54144;BME280;40050;47.324;18.792;2023-02-22T07:03:07;1005.00;;;8.30;74.29
54144;BME280;40050;47.324;18.792;2023-02-22T07:05:10;1005.01;;;8.37;74.27
54144;BME280;40050;47.324;18.792;2023-02-22T07:07:13;1004.99;;;8.42;74.10
54144;BME280;40050;47.324;18.792;2023-02-22T07:09:15;1004.96;;;8.47;74.01
54144;BME280;40050;47.324;18.792;2023-02-22T07:11:19;1004.93;;;8.55;73.82
54144;BME280;40050;47.324;18.792;2023-02-22T07:13:21;1004.98;;;8.62;73.55
54144;BME280;40050;47.324;18.792;2023-02-22T07:15:24;1004.94;;;8.68;73.53
54144;BME280;40050;47.324;18.792;2023-02-22T07:17:27;1004.92;;;8.74;73.51
54144;BME280;40050;47.324;18.792;2023-02-22T07:19:29;1004.90;;;8.79;73.63
54144;BME280;40050;47.324;18.792;2023-02-22T07:21:31;1004.96;;;8.87;73.35
54144;BME280;40050;47.324;18.792;2023-02-22T07:23:34;1005.01;;;8.94;73.37
54144;BME280;40050;47.324;18.792;2023-02-22T07:25:36;1004.98;;;9.03;73.41
54144;BME280;40050;47.324;18.792;2023-02-22T07:27:39;1004.97;;;9.13;73.36
54144;BME280;40050;47.324;18.792;2023-02-22T07:29:42;1004.96;;;9.20;73.22
54144;BME280;40050;47.324;18.792;2023-02-22T07:31:44;1004.93;;;9.20;73.24
54144;BME280;40050;47.324;18.792;2023-02-22T07:33:47;1005.00;;;9.31;73.25
54144;BME280;40050;47.324;18.792;2023-02-22T07:35:49;1004.98;;;9.35;72.89
54144;BME280;40050;47.324;18.792;2023-02-22T07:37:52;1004.97;;;9.39;72.77
54144;BME280;40050;47.324;18.792;2023-02-22T07:39:54;1004.98;;;9.50;72.58
54144;BME280;40050;47.324;18.792;2023-02-22T07:41:56;1004.62;;;9.32;72.67
54144;BME280;40050;47.324;18.792;2023-02-22T07:43:59;1005.01;;;9.64;72.36
54144;BME280;40050;47.324;18.792;2023-02-22T07:46:01;1005.00;;;9.67;72.02
54144;BME280;40050;47.324;18.792;2023-02-22T07:48:04;1004.99;;;9.74;71.99
54144;BME280;40050;47.324;18.792;2023-02-22T07:50:06;1005.00;;;9.79;72.16
54144;BME280;40050;47.324;18.792;2023-02-22T07:52:09;1005.03;;;9.92;71.97
54144;BME280;40050;47.324;18.792;2023-02-22T07:54:11;1004.92;;;9.97;71.83
54144;BME280;40050;47.324;18.792;2023-02-22T07:56:14;1004.96;;;10.06;71.71
54144;BME280;40050;47.324;18.792;2023-02-22T07:58:20;1004.93;;;10.09;71.47
54144;BME280;40050;47.324;18.792;2023-02-22T08:00:27;1004.89;;;10.10;71.50
54144;BME280;40050;47.324;18.792;2023-02-22T08:02:29;1004.98;;;10.23;71.48
54144;BME280;40050;47.324;18.792;2023-02-22T08:04:31;1004.96;;;10.31;71.43
54144;BME280;40050;47.324;18.792;2023-02-22T08:06:34;1004.97;;;10.35;71.47
54144;BME280;40050;47.324;18.792;2023-02-22T08:08:36;1004.96;;;10.42;71.52
54144;BME280;40050;47.324;18.792;2023-02-22T08:10:38;1004.96;;;10.51;71.34
54144;BME280;40050;47.324;18.792;2023-02-22T08:12:41;1004.94;;;10.64;71.02
54144;BME280;40050;47.324;18.792;2023-02-22T08:14:43;1004.94;;;10.72;70.78
54144;BME280;40050;47.324;18.792;2023-02-22T08:16:46;1004.95;;;10.80;71.01
54144;BME280;40050;47.324;18.792;2023-02-22T08:18:48;1004.91;;;10.89;71.12
54144;BME280;40050;47.324;18.792;2023-02-22T08:20:51;1004.94;;;11.02;70.65
54144;BME280;40050;47.324;18.792;2023-02-22T08:22:54;1004.94;;;11.08;70.55
54144;BME280;40050;47.324;18.792;2023-02-22T08:27:25;1005.03;;;11.23;70.27
54144;BME280;40050;47.324;18.792;2023-02-22T08:29:28;1004.92;;;11.30;70.14
54144;BME280;40050;47.324;18.792;2023-02-22T08:31:30;1004.97;;;11.44;69.95
54144;BME280;40050;47.324;18.792;2023-02-22T08:33:33;1004.94;;;11.51;69.85
54144;BME280;40050;47.324;18.792;2023-02-22T08:35:35;1004.92;;;11.59;69.70
54144;BME280;40050;47.324;18.792;2023-02-22T08:37:40;1004.95;;;11.65;69.47
54144;BME280;40050;47.324;18.792;2023-02-22T08:39:43;1004.98;;;11.70;69.47
54144;BME280;40050;47.324;18.792;2023-02-22T08:41:46;1004.98;;;11.78;69.35
54144;BME280;40050;47.324;18.792;2023-02-22T08:43:48;1004.97;;;11.87;69.33
54144;BME280;40050;47.324;18.792;2023-02-22T08:45:50;1004.94;;;11.93;68.99
54144;BME280;40050;47.324;18.792;2023-02-22T08:47:53;1004.74;;;11.85;68.90
54144;BME280;40050;47.324;18.792;2023-02-22T08:49:56;1004.93;;;12.04;68.78
54144;BME280;40050;47.324;18.792;2023-02-22T08:51:58;1004.95;;;12.10;68.47
54144;BME280;40050;47.324;18.792;2023-02-22T08:54:01;1004.95;;;12.15;68.17
54144;BME280;40050;47.324;18.792;2023-02-22T08:56:03;1004.91;;;12.10;67.97
54144;BME280;40050;47.324;18.792;2023-02-22T08:58:06;1004.91;;;12.14;68.13
54144;BME280;40050;47.324;18.792;2023-02-22T09:00:08;1004.79;;;12.16;67.74
54144;BME280;40050;47.324;18.792;2023-02-22T09:02:15;1004.77;;;12.26;67.55
54144;BME280;40050;47.324;18.792;2023-02-22T09:04:17;1004.76;;;12.29;67.36
54144;BME280;40050;47.324;18.792;2023-02-22T09:06:20;1004.71;;;12.35;67.71
54144;BME280;40050;47.324;18.792;2023-02-22T09:08:22;1004.71;;;12.44;66.99
54144;BME280;40050;47.324;18.792;2023-02-22T09:10:25;1004.76;;;12.54;66.59
54144;BME280;40050;47.324;18.792;2023-02-22T09:12:28;1004.77;;;12.58;66.55
54144;BME280;40050;47.324;18.792;2023-02-22T09:14:31;1004.74;;;12.61;66.78
54144;BME280;40050;47.324;18.792;2023-02-22T09:16:33;1004.72;;;12.65;66.54
54144;BME280;40050;47.324;18.792;2023-02-22T09:18:35;1004.79;;;12.72;66.37
54144;BME280;40050;47.324;18.792;2023-02-22T09:20:38;1004.84;;;12.77;66.73
54144;BME280;40050;47.324;18.792;2023-02-22T09:22:40;1004.79;;;12.83;66.68
54144;BME280;40050;47.324;18.792;2023-02-22T09:24:45;1004.80;;;12.89;66.38
54144;BME280;40050;47.324;18.792;2023-02-22T09:26:48;1004.77;;;12.91;66.20
54144;BME280;40050;47.324;18.792;2023-02-22T09:28:50;1004.69;;;12.96;66.30
54144;BME280;40050;47.324;18.792;2023-02-22T09:30:52;1004.64;;;13.00;66.28
54144;BME280;40050;47.324;18.792;2023-02-22T09:32:56;1004.57;;;13.08;66.18
54144;BME280;40050;47.324;18.792;2023-02-22T09:34:59;1004.53;;;13.15;66.35
54144;BME280;40050;47.324;18.792;2023-02-22T09:37:01;1004.53;;;13.27;66.22
54144;BME280;40050;47.324;18.792;2023-02-22T09:39:04;1004.59;;;13.35;65.45
54144;BME280;40050;47.324;18.792;2023-02-22T09:41:12;1004.60;;;13.41;65.37
54144;BME280;40050;47.324;18.792;2023-02-22T09:45:54;1004.64;;;13.48;64.85
54144;BME280;40050;47.324;18.792;2023-02-22T09:48:02;1004.66;;;13.51;64.66
54144;BME280;40050;47.324;18.792;2023-02-22T09:50:14;1004.63;;;13.59;64.57
54144;BME280;40050;47.324;18.792;2023-02-22T09:52:31;1004.66;;;13.66;64.26
54144;BME280;40050;47.324;18.792;2023-02-22T09:54:37;1004.67;;;13.73;64.11
54144;BME280;40050;47.324;18.792;2023-02-22T09:56:42;1004.69;;;13.80;63.95
54144;BME280;40050;47.324;18.792;2023-02-22T09:58:46;1004.69;;;13.82;63.55
54144;BME280;40050;47.324;18.792;2023-02-22T10:00:50;1004.66;;;13.81;63.84
54144;BME280;40050;47.324;18.792;2023-02-22T10:05:21;1004.65;;;13.98;63.55
54144;BME280;40050;47.324;18.792;2023-02-22T10:07:32;1004.66;;;14.08;63.39
54144;BME280;40050;47.324;18.792;2023-02-22T10:09:39;1004.66;;;14.19;62.27
54144;BME280;40050;47.324;18.792;2023-02-22T10:12:05;1004.67;;;14.22;62.56
54144;BME280;40050;47.324;18.792;2023-02-22T10:16:41;1004.61;;;14.28;62.79
54144;BME280;40050;47.324;18.792;2023-02-22T10:18:59;1004.64;;;14.42;62.37
54144;BME280;40050;47.324;18.792;2023-02-22T10:21:14;1004.63;;;14.51;61.95
54144;BME280;40050;47.324;18.792;2023-02-22T10:23:34;1004.59;;;14.56;61.74
54144;BME280;40050;47.324;18.792;2023-02-22T10:25:37;1004.57;;;14.57;61.06
54144;BME280;40050;47.324;18.792;2023-02-22T10:27:45;1004.57;;;14.66;60.84
54144;BME280;40050;47.324;18.792;2023-02-22T10:29:49;1004.56;;;14.71;60.63
54144;BME280;40050;47.324;18.792;2023-02-22T10:32:00;1004.57;;;14.77;60.06
54144;BME280;40050;47.324;18.792;2023-02-22T10:34:11;1004.50;;;14.77;59.89
54144;BME280;40050;47.324;18.792;2023-02-22T10:36:16;1004.54;;;14.84;59.70
54144;BME280;40050;47.324;18.792;2023-02-22T10:38:20;1004.52;;;14.84;59.15
54144;BME280;40050;47.324;18.792;2023-02-22T10:40:24;1004.45;;;14.81;59.71
54144;BME280;40050;47.324;18.792;2023-02-22T10:42:29;1004.30;;;14.78;59.29
54144;BME280;40050;47.324;18.792;2023-02-22T10:44:46;1004.42;;;14.90;59.38
54144;BME280;40050;47.324;18.792;2023-02-22T10:46:51;1004.43;;;15.00;59.36
54144;BME280;40050;47.324;18.792;2023-02-22T10:48:55;1004.48;;;15.09;59.47
54144;BME280;40050;47.324;18.792;2023-02-22T10:51:01;1004.43;;;15.11;59.35
54144;BME280;40050;47.324;18.792;2023-02-22T10:53:07;1004.35;;;15.19;58.87
54144;BME280;40050;47.324;18.792;2023-02-22T10:55:11;1004.34;;;15.23;58.74
54144;BME280;40050;47.324;18.792;2023-02-22T10:57:15;1004.31;;;15.19;58.43
54144;BME280;40050;47.324;18.792;2023-02-22T10:59:28;1004.31;;;15.26;58.49
54144;BME280;40050;47.324;18.792;2023-02-22T11:01:37;1004.32;;;15.37;58.19
54144;BME280;40050;47.324;18.792;2023-02-22T11:03:41;1004.31;;;15.38;57.76
54144;BME280;40050;47.324;18.792;2023-02-22T11:05:46;1004.30;;;15.36;57.92
54144;BME280;40050;47.324;18.792;2023-02-22T11:07:50;1004.25;;;15.43;58.00
54144;BME280;40050;47.324;18.792;2023-02-22T11:09:55;1004.27;;;15.47;57.75
54144;BME280;40050;47.324;18.792;2023-02-22T11:12:08;1004.28;;;15.50;57.58
54144;BME280;40050;47.324;18.792;2023-02-22T11:14:12;1004.00;;;15.32;57.00
54144;BME280;40050;47.324;18.792;2023-02-22T11:18:33;1004.17;;;15.49;56.80
54144;BME280;40050;47.324;18.792;2023-02-22T11:20:36;1004.11;;;15.50;56.62
54144;BME280;40050;47.324;18.792;2023-02-22T11:22:40;1004.16;;;15.56;55.92
54144;BME280;40050;47.324;18.792;2023-02-22T11:24:48;1004.14;;;15.62;56.19
54144;BME280;40050;47.324;18.792;2023-02-22T11:27:00;1003.92;;;15.49;56.41
54144;BME280;40050;47.324;18.792;2023-02-22T11:29:26;1004.10;;;15.65;56.33
54144;BME280;40050;47.324;18.792;2023-02-22T11:31:25;1004.08;;;15.71;55.91
54144;BME280;40050;47.324;18.792;2023-02-22T11:33:31;1004.06;;;15.77;55.17
54144;BME280;40050;47.324;18.792;2023-02-22T11:35:35;1004.10;;;15.78;55.16
54144;BME280;40050;47.324;18.792;2023-02-22T11:37:38;1004.05;;;15.74;55.19
54144;BME280;40050;47.324;18.792;2023-02-22T11:39:40;1004.01;;;15.76;54.70
54144;BME280;40050;47.324;18.792;2023-02-22T11:41:42;1004.04;;;15.77;54.99
54144;BME280;40050;47.324;18.792;2023-02-22T11:43:46;1003.97;;;15.79;55.00